Time;durP1;ratioP1;P1;durP2;ratioP2;P2;SDS_P1;SDS_P2;PMS_P1;PMS_P2;Temp;Humidity;BMP_temperature;BMP_pressure;BME280_temperature;BME280_humidity;BME280_pressure;Samples;Min_cycle;Max_cycle;Signal;HPM_P1;HPM_P2
2023/05/16 00:00:34;;;;;;;;;;;;;;;;;;4975920;28;19945;-88
2023/05/16 00:03:00;;;;;;;;;;;;;;;;;;4960099;28;20391;-88
2023/05/16 00:05:26;;;;;;;;;;;;;;;;;;4960449;28;19922;-88
2023/05/16 00:07:51;;;;;;;;;;;;;;;;;;4960262;28;19954;-88
2023/05/16 00:10:17;;;;;;;;;;;;;;;;;;4959959;28;19926;-88
2023/05/16 00:12:43;;;;;;;;;;;;;;;;;;4960269;28;19933;-88
2023/05/16 00:15:11;;;;;;;;;;;;;;;;;;4960132;28;20026;-89
2023/05/16 00:17:37;;;;;;;;;;;;;;;;;;4960309;28;19922;-89
2023/05/16 00:20:12;;;;;;;;;;;;;;;;;;4959446;28;20506;-89
2023/05/16 00:22:38;;;;;;;;;;;;;;;;;;4959872;28;19933;-88
2023/05/16 00:25:04;;;;;;;;;;;;;;;;;;4975555;28;20953;-88
2023/05/16 00:27:30;;;;;;;;;;;;;;;;;;4959822;28;19929;-88
2023/05/16 00:29:56;;;;;;;;;;;;;;;;;;4975729;28;19922;-88
2023/05/16 00:32:22;;;;;;;;;;;;;;;;;;4959512;28;19929;-88
2023/05/16 00:34:48;;;;;;;;;;;;;;;;;;4959491;28;19926;-87
2023/05/16 00:37:14;;;;;;;;;;;;;;;;;;4959182;28;19937;-88
2023/05/16 00:39:40;;;;;;;;;;;;;;;;;;4958863;28;20454;-88
2023/05/16 00:42:06;;;;;;;;;;;;;;;;;;4959129;28;19929;-89
2023/05/16 00:44:32;;;;;;;;;;;;;;;;;;4959488;28;19993;-88
2023/05/16 00:46:59;;;;;;;;;;;;;;;;;;4959384;28;19926;-89
2023/05/16 00:49:25;;;;;;;;;;;;;;;;;;4975364;28;19945;-87
2023/05/16 00:51:51;;;;;;;;;;;;;;;;;;4958873;28;19922;-87
2023/05/16 00:54:17;;;;;;;;;;;;;;;;;;4959424;28;19925;-88
2023/05/16 00:56:43;;;;;;;;;;;;;;;;;;4959106;28;19926;-88
2023/05/16 00:59:09;;;;;;;;;;;;;;;;;;4974617;28;20021;-88
2023/05/16 01:01:36;;;;;;;;;;;;;;;;;;4974864;28;20355;-88
2023/05/16 01:04:01;;;;;;;;;;;;;;;;;;4958854;28;19934;-87
2023/05/16 01:06:27;;;;;;;;;;;;;;;;;;4958618;28;19929;-88
2023/05/16 01:08:53;;;;;;;;;;;;;;;;;;4958237;28;19930;-88
2023/05/16 01:11:19;;;;;;;;;;;;;;;;;;4958584;28;19969;-88
2023/05/16 01:13:45;;;;;;;;;;;;;;;;;;4974489;28;19922;-89
2023/05/16 01:16:11;;;;;;;;;;;;;;;;;;4974924;28;19922;-88
2023/05/16 01:18:37;;;;;;;;;;;;;;;;;;4958968;28;19980;-88
2023/05/16 01:21:03;;;;;;;;;;;;;;;;;;4974158;28;19929;-87
2023/05/16 01:23:29;;;;;;;;;;;;;;;;;;4958365;28;19926;-87
2023/05/16 01:25:56;;;;;;;;;;;;;;;;;;4958442;28;19972;-88
2023/05/16 01:28:22;;;;;;;;;;;;;;;;;;4958377;28;19945;-88
2023/05/16 01:30:47;;;;;;;;;;;;;;;;;;4973876;28;20396;-88
2023/05/16 01:33:13;;;;;;;;;;;;;;;;;;4958132;28;19929;-88
2023/05/16 01:35:39;;;;;;;;;;;;;;;;;;4958206;28;19922;-88
2023/05/16 01:38:05;;;;;;;;;;;;;;;;;;4958263;28;19925;-87
2023/05/16 01:40:31;;;;;;;;;;;;;;;;;;4958193;28;20387;-87
2023/05/16 01:42:57;;;;;;;;;;;;;;;;;;4958249;28;19927;-88
2023/05/16 01:45:23;;;;;;;;;;;;;;;;;;4958150;28;19988;-88
2023/05/16 01:47:49;;;;;;;;;;;;;;;;;;4958410;28;20008;-88
2023/05/16 01:50:16;;;;;;;;;;;;;;;;;;4957427;28;19992;-87
2023/05/16 01:52:42;;;;;;;;;;;;;;;;;;4957878;28;19928;-88
2023/05/16 01:55:08;;;;;;;;;;;;;;;;;;4957641;28;19925;-88
2023/05/16 01:57:34;;;;;;;;;;;;;;;;;;4957888;28;19973;-88
2023/05/16 02:00:00;;;;;;;;;;;;;;;;;;4957295;28;19922;-87
2023/05/16 02:02:26;;;;;;;;;;;;;;;;;;4957508;28;19933;-87
2023/05/16 02:04:52;;;;;;;;;;;;;;;;;;4956856;28;20053;-87
2023/05/16 02:07:18;;;;;;;;;;;;;;;;;;4957434;28;19930;-88
2023/05/16 02:09:43;;;;;;;;;;;;;;;;;;4957371;28;19930;-87
2023/05/16 02:12:09;;;;;;;;;;;;;;;;;;4957889;28;19922;-88
2023/05/16 02:14:35;;;;;;;;;;;;;;;;;;4973671;28;19949;-88
2023/05/16 02:17:01;;;;;;;;;;;;;;;;;;4958093;28;20443;-88
2023/05/16 02:19:27;;;;;;;;;;;;;;;;;;4957021;28;19936;-88
2023/05/16 02:21:53;;;;;;;;;;;;;;;;;;4957391;28;19922;-88
2023/05/16 02:24:20;;;;;;;;;;;;;;;;;;4973455;28;19926;-88
2023/05/16 02:26:46;;;;;;;;;;;;;;;;;;4957138;28;20177;-87
2023/05/16 02:29:11;;;;;;;;;;;;;;;;;;4956991;28;20302;-87
2023/05/16 02:31:37;;;;;;;;;;;;;;;;;;4957308;28;19926;-88
2023/05/16 02:34:03;;;;;;;;;;;;;;;;;;4957129;28;20014;-87
2023/05/16 02:36:29;;;;;;;;;;;;;;;;;;4957080;28;20442;-87
2023/05/16 02:38:55;;;;;;;;;;;;;;;;;;4956850;28;20399;-87
2023/05/16 02:41:22;;;;;;;;;;;;;;;;;;4956867;28;19922;-88
2023/05/16 02:43:48;;;;;;;;;;;;;;;;;;4972880;28;20431;-88
2023/05/16 02:46:13;;;;;;;;;;;;;;;;;;4972894;28;19922;-87
2023/05/16 02:48:39;;;;;;;;;;;;;;;;;;4956711;28;19922;-88
2023/05/16 02:51:05;;;;;;;;;;;;;;;;;;4972627;28;19922;-87
2023/05/16 02:53:31;;;;;;;;;;;;;;;;;;4956407;28;20431;-87
2023/05/16 02:55:57;;;;;;;;;;;;;;;;;;4956610;28;19926;-87
2023/05/16 02:58:23;;;;;;;;;;;;;;;;;;4956431;28;20410;-88
2023/05/16 03:00:49;;;;;;;;;;;;;;;;;;4956547;28;19926;-87
2023/05/16 03:03:15;;;;;;;;;;;;;;;;;;4956662;28;20379;-88
2023/05/16 03:05:41;;;;;;;;;;;;;;;;;;4972743;28;20065;-88
2023/05/16 03:08:07;;;;;;;;;;;;;;;;;;4956693;28;19939;-87
2023/05/16 03:10:33;;;;;;;;;;;;;;;;;;4972768;28;20028;-88
2023/05/16 03:12:59;;;;;;;;;;;;;;;;;;4956589;28;19926;-87
2023/05/16 03:15:25;;;;;;;;;;;;;;;;;;4955861;28;19922;-87
2023/05/16 03:17:51;;;;;;;;;;;;;;;;;;4971866;28;19922;-87
2023/05/16 03:20:17;;;;;;;;;;;;;;;;;;4956490;28;19992;-88
2023/05/16 03:22:44;;;;;;;;;;;;;;;;;;4972457;28;19949;-88
2023/05/16 03:25:10;;;;;;;;;;;;;;;;;;4956578;28;19929;-87
2023/05/16 03:27:35;;;;;;;;;;;;;;;;;;4957067;28;20383;-88
2023/05/16 03:30:01;;;;;;;;;;;;;;;;;;4956059;28;19922;-86
2023/05/16 03:32:27;;;;;;;;;;;;;;;;;;4956064;28;19984;-87
2023/05/16 03:34:53;;;;;;;;;;;;;;;;;;4956353;28;19981;-87
2023/05/16 03:37:19;;;;;;;;;;;;;;;;;;4956181;28;19926;-87
2023/05/16 03:39:45;;;;;;;;;;;;;;;;;;4972042;28;19923;-88
2023/05/16 03:42:11;;;;;;;;;;;;;;;;;;4956335;28;20375;-87
2023/05/16 03:44:37;;;;;;;;;;;;;;;;;;4956093;28;19928;-87
2023/05/16 03:47:03;;;;;;;;;;;;;;;;;;4956016;28;19929;-87
2023/05/16 03:49:29;;;;;;;;;;;;;;;;;;4955668;28;20390;-87
2023/05/16 03:51:55;;;;;;;;;;;;;;;;;;4955921;28;20004;-87
2023/05/16 03:54:21;;;;;;;;;;;;;;;;;;4956074;28;19957;-87
2023/05/16 03:56:47;;;;;;;;;;;;;;;;;;4955979;28;19973;-88
2023/05/16 03:59:13;;;;;;;;;;;;;;;;;;4955932;28;20371;-87
2023/05/16 04:01:39;;;;;;;;;;;;;;;;;;4954945;28;20020;-87
2023/05/16 04:04:06;;;;;;;;;;;;;;;;;;4947199;29;19933;-87
2023/05/16 04:06:33;;;;;;;;;;;;;;;;;;4946908;28;19930;-87
2023/05/16 04:08:59;;;;;;;;;;;;;;;;;;4949957;28;20307;-86
2023/05/16 04:11:25;;;;;;;;;;;;;;;;;;4965840;28;19929;-91
2023/05/16 04:13:52;;;;;;;;;;;;;;;;;;4946542;28;20379;-87
2023/05/16 04:16:18;;;;;;;;;;;;;;;;;;4947519;28;19926;-87
2023/05/16 04:18:44;;;;;;;;;;;;;;;;;;4951243;28;20411;-87
2023/05/16 04:21:13;;;;;;;;;;;;;;;;;;4944025;29;19969;-87
2023/05/16 04:23:39;;;;;;;;;;;;;;;;;;4959916;28;20292;-87
2023/05/16 04:26:05;;;;;;;;;;;;;;;;;;4944104;29;20001;-87
2023/05/16 04:28:31;;;;;;;;;;;;;;;;;;4949425;28;19930;-87
2023/05/16 04:30:57;;;;;;;;;;;;;;;;;;4948535;28;19922;-87
2023/05/16 04:33:23;;;;;;;;;;;;;;;;;;4950193;28;20293;-87
2023/05/16 04:35:49;;;;;;;;;;;;;;;;;;4950631;28;19965;-87
2023/05/16 04:38:15;;;;;;;;;;;;;;;;;;4945536;28;19969;-87
2023/05/16 04:40:42;;;;;;;;;;;;;;;;;;4948818;28;19933;-87
2023/05/16 04:43:07;;;;;;;;;;;;;;;;;;4961457;28;19930;-87
2023/05/16 04:45:33;;;;;;;;;;;;;;;;;;4948288;28;19955;-87
2023/05/16 04:48:00;;;;;;;;;;;;;;;;;;4946242;28;19929;-87
2023/05/16 04:50:25;;;;;;;;;;;;;;;;;;4953104;28;19976;-87
2023/05/16 04:52:51;;;;;;;;;;;;;;;;;;4957975;28;20016;-87
2023/05/16 04:55:17;;;;;;;;;;;;;;;;;;4949253;28;19928;-87
2023/05/16 04:57:43;;;;;;;;;;;;;;;;;;4947604;28;19922;-87
2023/05/16 05:00:10;;;;;;;;;;;;;;;;;;4946341;28;19922;-87
2023/05/16 05:02:36;;;;;;;;;;;;;;;;;;4957908;28;19960;-87
2023/05/16 05:05:02;;;;;;;;;;;;;;;;;;4973182;28;19956;-87
2023/05/16 05:07:28;;;;;;;;;;;;;;;;;;4956760;28;19930;-87
2023/05/16 05:09:57;;;;;;;;;;;;;;;;;;4957698;28;19929;-87
2023/05/16 05:12:24;;;;;;;;;;;;;;;;;;4955076;28;19929;-88
2023/05/16 05:14:50;;;;;;;;;;;;;;;;;;4957358;28;19926;-87
2023/05/16 05:17:16;;;;;;;;;;;;;;;;;;4973572;28;19922;-87
2023/05/16 05:19:41;;;;;;;;;;;;;;;;;;4956818;28;19930;-87
2023/05/16 05:22:07;;;;;;;;;;;;;;;;;;4971665;28;20327;-88
2023/05/16 05:24:33;;;;;;;;;;;;;;;;;;4957394;28;19926;-87
2023/05/16 05:26:59;;;;;;;;;;;;;;;;;;4955813;28;19929;-88
2023/05/16 05:29:25;;;;;;;;;;;;;;;;;;4957856;28;20372;-87
2023/05/16 05:31:51;;;;;;;;;;;;;;;;;;4956006;28;20303;-88
2023/05/16 05:34:17;;;;;;;;;;;;;;;;;;4957572;28;19970;-87
2023/05/16 05:36:43;;;;;;;;;;;;;;;;;;4973320;28;19937;-87
2023/05/16 05:39:09;;;;;;;;;;;;;;;;;;4955088;28;19926;-88
2023/05/16 05:41:35;;;;;;;;;;;;;;;;;;4956776;28;20339;-88
2023/05/16 05:44:01;;;;;;;;;;;;;;;;;;4955924;28;20025;-87
2023/05/16 05:46:27;;;;;;;;;;;;;;;;;;4970886;28;20640;-87
2023/05/16 05:48:53;;;;;;;;;;;;;;;;;;4957403;28;20021;-87
2023/05/16 05:51:19;;;;;;;;;;;;;;;;;;4956414;28;20395;-87
2023/05/16 05:53:45;;;;;;;;;;;;;;;;;;4953380;28;19922;-87
2023/05/16 05:56:11;;;;;;;;;;;;;;;;;;4948530;28;20024;-87
2023/05/16 05:58:37;;;;;;;;;;;;;;;;;;4946056;28;20016;-88
2023/05/16 06:01:03;;;;;;;;;;;;;;;;;;4945764;29;19930;-87
2023/05/16 06:03:29;;;;;;;;;;;;;;;;;;4968705;28;19930;-88
2023/05/16 06:05:55;;;;;;;;;;;;;;;;;;4962629;28;19922;-88
2023/05/16 06:08:21;;;;;;;;;;;;;;;;;;4954305;28;20306;-87
2023/05/16 06:10:46;;;;;;;;;;;;;;;;;;4955122;28;19922;-88
2023/05/16 06:13:12;;;;;;;;;;;;;;;;;;4956973;28;19922;-86
2023/05/16 06:15:38;;;;;;;;;;;;;;;;;;4971418;28;19926;-92
2023/05/16 06:18:04;;;;;;;;;;;;;;;;;;4956671;28;20435;-92
2023/05/16 06:20:30;;;;;;;;;;;;;;;;;;4956832;28;19926;-92
2023/05/16 06:22:56;;;;;;;;;;;;;;;;;;4956701;28;19933;-88
2023/05/16 06:25:22;;;;;;;;;;;;;;;;;;4956088;28;20032;-89
2023/05/16 06:27:48;;;;;;;;;;;;;;;;;;4972202;28;20394;-89
2023/05/16 06:30:14;;;;;;;;;;;;;;;;;;4972504;28;19931;-88
2023/05/16 06:32:40;;;;;;;;;;;;;;;;;;4953454;28;21301;-89
2023/05/16 06:35:07;;;;;;;;;;;;;;;;;;4955215;28;20043;-89
2023/05/16 06:37:33;;;;;;;;;;;;;;;;;;4951951;29;19922;-88
2023/05/16 06:39:59;;;;;;;;;;;;;;;;;;4949402;29;19977;-89
2023/05/16 06:42:25;;;;;;;;;;;;;;;;;;4944173;28;20359;-88
2023/05/16 06:44:51;;;;;;;;;;;;;;;;;;4961830;28;20016;-89
2023/05/16 06:47:16;;;;;;;;;;;;;;;;;;4947442;28;20240;-89
2023/05/16 06:49:42;;;;;;;;;;;;;;;;;;4951430;28;20390;-88
2023/05/16 06:52:08;;;;;;;;;;;;;;;;;;4948364;28;19977;-89
2023/05/16 06:54:35;;;;;;;;;;;;;;;;;;4945621;28;20371;-89
2023/05/16 06:57:03;;;;;;;;;;;;;;;;;;4961717;28;19922;-89
2023/05/16 06:59:29;;;;;;;;;;;;;;;;;;4952607;28;20302;-90
2023/05/16 07:01:55;;;;;;;;;;;;;;;;;;4962072;28;19926;-92
2023/05/16 07:04:21;;;;;;;;;;;;;;;;;;4948450;28;19989;-88
2023/05/16 07:06:47;;;;;;;;;;;;;;;;;;4948922;28;19922;-89
2023/05/16 07:09:12;;;;;;;;;;;;;;;;;;4957920;28;20367;-87
2023/05/16 07:11:38;;;;;;;;;;;;;;;;;;4952364;28;20343;-87
2023/05/16 07:14:04;;;;;;;;;;;;;;;;;;4942412;29;19926;-88
2023/05/16 07:16:30;;;;;;;;;;;;;;;;;;4938478;29;20283;-87
2023/05/16 07:18:56;;;;;;;;;;;;;;;;;;4938833;29;19966;-88
2023/05/16 07:21:22;;;;;;;;;;;;;;;;;;4954254;29;19930;-90
2023/05/16 07:23:48;;;;;;;;;;;;;;;;;;4952833;28;19969;-90
2023/05/16 07:26:14;;;;;;;;;;;;;;;;;;4957705;28;20017;-90
2023/05/16 07:28:40;;;;;;;;;;;;;;;;;;4956658;28;20318;-89
2023/05/16 07:31:07;;;;;;;;;;;;;;;;;;4938618;29;19922;-90
2023/05/16 07:33:36;;;;;;;;;;;;;;;;;;4938888;29;19922;-90
2023/05/16 07:36:01;;;;;;;;;;;;;;;;;;4946593;28;19981;-89
2023/05/16 07:38:27;;;;;;;;;;;;;;;;;;4974291;28;19922;-90
2023/05/16 07:40:53;;;;;;;;;;;;;;;;;;4957932;28;19937;-91
2023/05/16 07:43:19;;;;;;;;;;;;;;;;;;4974348;28;19926;-96
2023/05/16 07:45:45;;;;;;;;;;;;;;;;;;4957832;28;20722;-93
2023/05/16 07:48:12;;;;;;;;;;;;;;;;;;4953191;29;19922;-88
2023/05/16 07:50:38;;;;;;;;;;;;;;;;;;4939107;28;19927;-86
2023/05/16 07:53:03;;;;;;;;;;;;;;;;;;4973238;28;19922;-87
2023/05/16 07:55:29;;;;;;;;;;;;;;;;;;4957519;28;20056;-88
2023/05/16 07:57:55;;;;;;;;;;;;;;;;;;4950107;29;19922;-90
2023/05/16 08:00:21;;;;;;;;;;;;;;;;;;4945250;28;19922;-92
2023/05/16 08:02:47;;;;;;;;;;;;;;;;;;4959116;28;19949;-91
2023/05/16 08:05:13;;;;;;;;;;;;;;;;;;4947802;29;20411;-91
2023/05/16 08:07:39;;;;;;;;;;;;;;;;;;4942453;29;20099;-89
2023/05/16 08:10:05;;;;;;;;;;;;;;;;;;4942081;29;19922;-90
2023/05/16 08:12:31;;;;;;;;;;;;;;;;;;4942426;29;19923;-90
2023/05/16 08:14:57;;;;;;;;;;;;;;;;;;4941485;29;19979;-90
2023/05/16 08:17:23;;;;;;;;;;;;;;;;;;4941724;29;19922;-88
2023/05/16 08:19:48;;;;;;;;;;;;;;;;;;4948014;28;19933;-89
2023/05/16 08:22:15;;;;;;;;;;;;;;;;;;4961082;28;19922;-88
2023/05/16 08:24:40;;;;;;;;;;;;;;;;;;4950987;29;20414;-89
2023/05/16 08:27:07;;;;;;;;;;;;;;;;;;4941570;29;19926;-88
2023/05/16 08:29:33;;;;;;;;;;;;;;;;;;4941243;29;19923;-89
2023/05/16 08:31:59;;;;;;;;;;;;;;;;;;4941416;29;19974;-87
2023/05/16 08:34:25;;;;;;;;;;;;;;;;;;4941500;29;19922;-91
2023/05/16 08:36:51;;;;;;;;;;;;;;;;;;4949219;28;20449;-89
2023/05/16 08:39:17;;;;;;;;;;;;;;;;;;4956623;28;19969;-89
2023/05/16 08:41:43;;;;;;;;;;;;;;;;;;4959893;28;19922;-96
2023/05/16 08:49:59;;;;;;;;;;;;;;;;;;4955843;28;19922;-96
2023/05/16 08:56:06;;;;;;;;;;;;;;;;;;4918121;29;20039;-96
2023/05/16 08:58:38;;;;;;;;;;;;;;;;;;4915189;29;19906;-96
2023/05/16 09:01:14;;;;;;;;;;;;;;;;;;4941726;29;19938;-96
2023/05/16 09:03:40;;;;;;;;;;;;;;;;;;4940734;29;20364;-96
2023/05/16 09:06:14;;;;;;;;;;;;;;;;;;4956542;29;20380;-96
2023/05/16 09:12:12;;;;;;;;;;;;;;;;;;4958840;29;20445;-96
2023/05/16 09:17:52;;;;;;;;;;;;;;;;;;4980778;28;20346;-96
2023/05/16 09:20:18;;;;;;;;;;;;;;;;;;4960979;28;19926;-88
2023/05/16 09:22:43;;;;;;;;;;;;;;;;;;4949310;28;20367;-89
2023/05/16 09:25:09;;;;;;;;;;;;;;;;;;4950587;28;19933;-89
2023/05/16 09:27:35;;;;;;;;;;;;;;;;;;4970068;28;19926;-89
2023/05/16 09:30:01;;;;;;;;;;;;;;;;;;4965342;28;19953;-89
2023/05/16 09:32:27;;;;;;;;;;;;;;;;;;4947084;28;20018;-88
2023/05/16 09:34:55;;;;;;;;;;;;;;;;;;4949966;28;19929;-86
2023/05/16 09:37:21;;;;;;;;;;;;;;;;;;4961768;28;20009;-87
2023/05/16 09:39:47;;;;;;;;;;;;;;;;;;4946220;28;20010;-87
2023/05/16 09:42:13;;;;;;;;;;;;;;;;;;4948642;28;20336;-88
2023/05/16 09:44:39;;;;;;;;;;;;;;;;;;4949704;28;19926;-89
2023/05/16 09:47:05;;;;;;;;;;;;;;;;;;4949358;28;20391;-86
2023/05/16 09:49:31;;;;;;;;;;;;;;;;;;4944685;29;19923;-86
2023/05/16 09:51:56;;;;;;;;;;;;;;;;;;4948257;28;19945;-89
2023/05/16 09:54:22;;;;;;;;;;;;;;;;;;4958990;28;19923;-87
2023/05/16 09:56:49;;;;;;;;;;;;;;;;;;4959049;28;19980;-86
2023/05/16 09:59:15;;;;;;;;;;;;;;;;;;4948000;29;20344;-90
2023/05/16 10:01:41;;;;;;;;;;;;;;;;;;4940041;29;19923;-91
2023/05/16 10:04:09;;;;;;;;;;;;;;;;;;4947867;28;19932;-91
2023/05/16 10:06:35;;;;;;;;;;;;;;;;;;4940050;29;19934;-88
2023/05/16 10:09:01;;;;;;;;;;;;;;;;;;4949014;28;20367;-90
2023/05/16 10:11:27;;;;;;;;;;;;;;;;;;4958311;28;19929;-90
2023/05/16 10:13:53;;;;;;;;;;;;;;;;;;4957687;28;19922;-87
2023/05/16 10:16:19;;;;;;;;;;;;;;;;;;4958404;28;19926;-91
2023/05/16 10:18:45;;;;;;;;;;;;;;;;;;4958956;28;20273;-87
2023/05/16 10:21:11;;;;;;;;;;;;;;;;;;4951663;29;19922;-87
2023/05/16 10:23:37;;;;;;;;;;;;;;;;;;4947196;28;19957;-87
2023/05/16 10:26:03;;;;;;;;;;;;;;;;;;4940309;28;19927;-88
2023/05/16 10:28:29;;;;;;;;;;;;;;;;;;4958228;28;19926;-87
2023/05/16 10:30:55;;;;;;;;;;;;;;;;;;4958008;28;20430;-87
2023/05/16 10:33:21;;;;;;;;;;;;;;;;;;4949789;29;20379;-87
2023/05/16 10:35:47;;;;;;;;;;;;;;;;;;4939339;29;20604;-87
2023/05/16 10:38:13;;;;;;;;;;;;;;;;;;4939177;29;20005;-87
2023/05/16 10:40:39;;;;;;;;;;;;;;;;;;4941579;28;19934;-87
2023/05/16 10:43:05;;;;;;;;;;;;;;;;;;4973942;28;19922;-88
2023/05/16 10:45:31;;;;;;;;;;;;;;;;;;4952239;29;19926;-87
2023/05/16 10:47:57;;;;;;;;;;;;;;;;;;4948417;28;19922;-88
2023/05/16 10:50:23;;;;;;;;;;;;;;;;;;4949478;28;19922;-87
2023/05/16 10:52:49;;;;;;;;;;;;;;;;;;4955246;28;20421;-90
2023/05/16 10:55:15;;;;;;;;;;;;;;;;;;4962424;28;19926;-87
2023/05/16 10:57:41;;;;;;;;;;;;;;;;;;4964994;28;20399;-87
2023/05/16 11:00:07;;;;;;;;;;;;;;;;;;4947300;28;20009;-87
2023/05/16 11:02:33;;;;;;;;;;;;;;;;;;4965476;28;19922;-88
2023/05/16 11:04:59;;;;;;;;;;;;;;;;;;4964298;28;19930;-88
2023/05/16 11:07:25;;;;;;;;;;;;;;;;;;4952983;28;19929;-88
2023/05/16 11:09:51;;;;;;;;;;;;;;;;;;4946985;28;20383;-89
2023/05/16 11:12:17;;;;;;;;;;;;;;;;;;4948856;28;19922;-88
2023/05/16 11:14:46;;;;;;;;;;;;;;;;;;4948130;28;19922;-89
2023/05/16 11:17:12;;;;;;;;;;;;;;;;;;4948375;28;19929;-90
2023/05/16 11:19:38;;;;;;;;;;;;;;;;;;4948103;28;20021;-87
2023/05/16 11:22:04;;;;;;;;;;;;;;;;;;4948585;28;19976;-87
2023/05/16 11:24:30;;;;;;;;;;;;;;;;;;4962034;28;19977;-87
2023/05/16 11:26:56;;;;;;;;;;;;;;;;;;4963860;28;20399;-87
2023/05/16 11:29:22;;;;;;;;;;;;;;;;;;4963328;28;20275;-88
2023/05/16 11:31:48;;;;;;;;;;;;;;;;;;4964922;28;19973;-88
2023/05/16 11:34:14;;;;;;;;;;;;;;;;;;4964002;28;19961;-89
2023/05/16 11:36:40;;;;;;;;;;;;;;;;;;4946535;28;19926;-89
2023/05/16 11:39:06;;;;;;;;;;;;;;;;;;4955210;28;20287;-93
2023/05/16 11:41:32;;;;;;;;;;;;;;;;;;4952492;28;19922;-94
2023/05/16 11:43:58;;;;;;;;;;;;;;;;;;4951851;28;20442;-96
2023/05/16 11:46:24;;;;;;;;;;;;;;;;;;4955126;28;19930;-95
2023/05/16 11:48:50;;;;;;;;;;;;;;;;;;4952381;28;19927;-88
2023/05/16 11:51:17;;;;;;;;;;;;;;;;;;4952518;28;19976;-89
2023/05/16 11:53:46;;;;;;;;;;;;;;;;;;4942801;29;19930;-90
2023/05/16 11:56:12;;;;;;;;;;;;;;;;;;4945600;28;19948;-88
2023/05/16 11:58:38;;;;;;;;;;;;;;;;;;4950095;29;19922;-89
2023/05/16 12:01:04;;;;;;;;;;;;;;;;;;4951847;28;20045;-90
2023/05/16 12:03:33;;;;;;;;;;;;;;;;;;4960905;28;20390;-89
2023/05/16 12:05:59;;;;;;;;;;;;;;;;;;4947199;29;20013;-89
2023/05/16 12:08:25;;;;;;;;;;;;;;;;;;4957687;29;19969;-88
2023/05/16 12:10:51;;;;;;;;;;;;;;;;;;4941576;29;19982;-89
2023/05/16 12:13:17;;;;;;;;;;;;;;;;;;4942193;29;19989;-91
2023/05/16 12:15:43;;;;;;;;;;;;;;;;;;4942094;29;19922;-92
2023/05/16 12:18:09;;;;;;;;;;;;;;;;;;4960224;28;19934;-87
2023/05/16 12:20:35;;;;;;;;;;;;;;;;;;4960233;28;19922;-86
2023/05/16 12:23:01;;;;;;;;;;;;;;;;;;4949881;29;19929;-89
2023/05/16 12:25:27;;;;;;;;;;;;;;;;;;4947306;28;19966;-87
2023/05/16 12:27:53;;;;;;;;;;;;;;;;;;4964502;28;20009;-90
2023/05/16 12:30:19;;;;;;;;;;;;;;;;;;4960692;28;20593;-88
2023/05/16 12:32:45;;;;;;;;;;;;;;;;;;4960570;28;19922;-88
2023/05/16 12:35:12;;;;;;;;;;;;;;;;;;4942016;29;19961;-89
2023/05/16 12:37:38;;;;;;;;;;;;;;;;;;4941793;29;19930;-91
2023/05/16 12:40:05;;;;;;;;;;;;;;;;;;4948234;28;19929;-88
2023/05/16 12:42:30;;;;;;;;;;;;;;;;;;4960420;28;19925;-88
2023/05/16 12:44:56;;;;;;;;;;;;;;;;;;4972219;28;19977;-89
2023/05/16 12:47:22;;;;;;;;;;;;;;;;;;4982598;28;19994;-89
2023/05/16 12:49:53;;;;;;;;;;;;;;;;;;4968845;28;19929;-87
2023/05/16 12:52:19;;;;;;;;;;;;;;;;;;4949282;28;19930;-89
2023/05/16 12:54:45;;;;;;;;;;;;;;;;;;4946882;28;19954;-88
2023/05/16 12:57:11;;;;;;;;;;;;;;;;;;4950557;28;19962;-90
2023/05/16 12:59:37;;;;;;;;;;;;;;;;;;4950964;28;19976;-88
2023/05/16 13:02:03;;;;;;;;;;;;;;;;;;4948530;28;19968;-92
2023/05/16 13:04:29;;;;;;;;;;;;;;;;;;4948246;28;20021;-91
2023/05/16 13:06:56;;;;;;;;;;;;;;;;;;4959012;28;19926;-92
2023/05/16 13:09:22;;;;;;;;;;;;;;;;;;4952841;28;19922;-88
2023/05/16 13:11:49;;;;;;;;;;;;;;;;;;4950596;28;19926;-89
2023/05/16 13:14:16;;;;;;;;;;;;;;;;;;4952524;28;19989;-92
2023/05/16 13:16:42;;;;;;;;;;;;;;;;;;4971495;28;19988;-87
2023/05/16 13:19:08;;;;;;;;;;;;;;;;;;4960300;28;20016;-87
2023/05/16 13:21:34;;;;;;;;;;;;;;;;;;4959732;28;20020;-87
2023/05/16 13:24:00;;;;;;;;;;;;;;;;;;4959608;28;19996;-89
2023/05/16 13:26:26;;;;;;;;;;;;;;;;;;4961838;28;20312;-88
2023/05/16 13:28:53;;;;;;;;;;;;;;;;;;4956211;29;20041;-87
2023/05/16 13:31:20;;;;;;;;;;;;;;;;;;4968998;28;19926;-86
2023/05/16 13:33:46;;;;;;;;;;;;;;;;;;4951186;28;20421;-87
2023/05/16 13:36:12;;;;;;;;;;;;;;;;;;4975045;28;19922;-87
2023/05/16 13:38:38;;;;;;;;;;;;;;;;;;4940638;29;19922;-88
2023/05/16 13:41:04;;;;;;;;;;;;;;;;;;4947127;28;20364;-88
2023/05/16 13:43:29;;;;;;;;;;;;;;;;;;4959204;28;19922;-87
2023/05/16 13:45:56;;;;;;;;;;;;;;;;;;4975155;28;19926;-87
2023/05/16 13:48:21;;;;;;;;;;;;;;;;;;4975209;28;19965;-88
2023/05/16 13:50:47;;;;;;;;;;;;;;;;;;4959378;28;19929;-88
2023/05/16 13:53:13;;;;;;;;;;;;;;;;;;4958914;28;20391;-87
2023/05/16 13:55:39;;;;;;;;;;;;;;;;;;4948198;28;19972;-88
2023/05/16 13:58:05;;;;;;;;;;;;;;;;;;4951583;29;19929;-88
2023/05/16 14:00:31;;;;;;;;;;;;;;;;;;4957646;28;19926;-87
2023/05/16 14:02:57;;;;;;;;;;;;;;;;;;4954733;28;20384;-87
2023/05/16 14:05:23;;;;;;;;;;;;;;;;;;4952366;29;19934;-87
2023/05/16 14:07:49;;;;;;;;;;;;;;;;;;4972710;28;19930;-87
2023/05/16 14:10:15;;;;;;;;;;;;;;;;;;4958727;28;19922;-89
2023/05/16 14:15:44;;;;;;;;;;;;;;;;;;4987938;28;20401;-87
2023/05/16 14:18:12;;;;;;;;;;;;;;;;;;4968971;28;19922;-86
2023/05/16 14:20:38;;;;;;;;;;;;;;;;;;4946661;28;19926;-88
2023/05/16 14:23:04;;;;;;;;;;;;;;;;;;4973496;28;19945;-89
2023/05/16 14:25:29;;;;;;;;;;;;;;;;;;4958848;28;19930;-91
2023/05/16 14:27:55;;;;;;;;;;;;;;;;;;4961020;28;19922;-92
2023/05/16 14:30:21;;;;;;;;;;;;;;;;;;4974791;28;19970;-90
2023/05/16 14:32:47;;;;;;;;;;;;;;;;;;4972260;28;19923;-90
2023/05/16 14:35:13;;;;;;;;;;;;;;;;;;4946910;28;19926;-90
2023/05/16 14:37:39;;;;;;;;;;;;;;;;;;4951827;28;19926;-90
2023/05/16 14:40:05;;;;;;;;;;;;;;;;;;4943265;28;19944;-91
2023/05/16 14:45:01;;;;;;;;;;;;;;;;;;4970553;28;19926;-90
2023/05/16 14:47:27;;;;;;;;;;;;;;;;;;4949033;28;19961;-91
2023/05/16 14:49:54;;;;;;;;;;;;;;;;;;4961155;28;20422;-90
2023/05/16 14:52:20;;;;;;;;;;;;;;;;;;4963229;28;19970;-89
2023/05/16 14:54:46;;;;;;;;;;;;;;;;;;4947166;28;19922;-90
2023/05/16 14:57:12;;;;;;;;;;;;;;;;;;4964110;28;20384;-89
2023/05/16 14:59:38;;;;;;;;;;;;;;;;;;4946040;28;19923;-89
2023/05/16 15:02:05;;;;;;;;;;;;;;;;;;4948865;28;19922;-90
2023/05/16 15:04:31;;;;;;;;;;;;;;;;;;4945705;29;20268;-90
2023/05/16 15:06:57;;;;;;;;;;;;;;;;;;4949514;28;19937;-90
2023/05/16 15:09:22;;;;;;;;;;;;;;;;;;4945623;28;19929;-89
2023/05/16 15:11:48;;;;;;;;;;;;;;;;;;4944933;28;19922;-87
2023/05/16 15:14:14;;;;;;;;;;;;;;;;;;4962201;28;19927;-87
2023/05/16 15:16:40;;;;;;;;;;;;;;;;;;4947062;28;19922;-87
2023/05/16 15:19:06;;;;;;;;;;;;;;;;;;4947335;28;19923;-87
2023/05/16 15:21:32;;;;;;;;;;;;;;;;;;4949088;28;19930;-88
2023/05/16 15:23:58;;;;;;;;;;;;;;;;;;4946808;28;19961;-87
2023/05/16 15:26:24;;;;;;;;;;;;;;;;;;4943892;28;20324;-87
2023/05/16 15:28:51;;;;;;;;;;;;;;;;;;4949436;28;19922;-87
2023/05/16 15:31:16;;;;;;;;;;;;;;;;;;4945996;28;19922;-88
2023/05/16 15:33:44;;;;;;;;;;;;;;;;;;4964231;28;19923;-87
2023/05/16 15:36:10;;;;;;;;;;;;;;;;;;4945361;28;19957;-87
2023/05/16 15:38:36;;;;;;;;;;;;;;;;;;4961307;28;20295;-87
2023/05/16 15:41:04;;;;;;;;;;;;;;;;;;4963374;28;19952;-87
2023/05/16 15:43:30;;;;;;;;;;;;;;;;;;4959978;28;19929;-86
2023/05/16 15:45:56;;;;;;;;;;;;;;;;;;4950830;28;19926;-87
2023/05/16 15:48:22;;;;;;;;;;;;;;;;;;4944643;28;20455;-87
2023/05/16 15:50:48;;;;;;;;;;;;;;;;;;4946228;28;19973;-88
2023/05/16 15:53:14;;;;;;;;;;;;;;;;;;4961681;28;19922;-87
2023/05/16 15:55:40;;;;;;;;;;;;;;;;;;4945248;28;20434;-87
2023/05/16 15:58:06;;;;;;;;;;;;;;;;;;4963270;28;20335;-87
2023/05/16 16:00:32;;;;;;;;;;;;;;;;;;4960191;28;19961;-87
2023/05/16 16:02:57;;;;;;;;;;;;;;;;;;4947792;28;19922;-87
2023/05/16 16:05:23;;;;;;;;;;;;;;;;;;4967733;28;20350;-87
2023/05/16 16:07:49;;;;;;;;;;;;;;;;;;4945244;28;20343;-87
2023/05/16 16:10:15;;;;;;;;;;;;;;;;;;4945983;28;19930;-87
2023/05/16 16:12:41;;;;;;;;;;;;;;;;;;4951077;28;19929;-87
2023/05/16 16:15:07;;;;;;;;;;;;;;;;;;4950931;28;19922;-87
2023/05/16 16:17:33;;;;;;;;;;;;;;;;;;4944785;28;19945;-87
2023/05/16 16:19:59;;;;;;;;;;;;;;;;;;4947462;28;19929;-87
2023/05/16 16:22:25;;;;;;;;;;;;;;;;;;4943517;28;19922;-87
2023/05/16 16:24:51;;;;;;;;;;;;;;;;;;4946482;28;19930;-87
2023/05/16 16:27:16;;;;;;;;;;;;;;;;;;4967477;28;20315;-87
2023/05/16 16:29:42;;;;;;;;;;;;;;;;;;4965631;28;19954;-87
2023/05/16 16:32:08;;;;;;;;;;;;;;;;;;4949007;28;19934;-87
2023/05/16 16:34:34;;;;;;;;;;;;;;;;;;4947122;28;19993;-88
2023/05/16 16:37:00;;;;;;;;;;;;;;;;;;4951092;28;19922;-88
2023/05/16 16:39:26;;;;;;;;;;;;;;;;;;4966055;28;19930;-87
2023/05/16 16:41:52;;;;;;;;;;;;;;;;;;4971577;28;20275;-88
2023/05/16 16:44:18;;;;;;;;;;;;;;;;;;4955586;28;19926;-87
2023/05/16 16:46:44;;;;;;;;;;;;;;;;;;4957534;28;20387;-87
2023/05/16 16:49:10;;;;;;;;;;;;;;;;;;4972214;28;19922;-88
2023/05/16 16:51:36;;;;;;;;;;;;;;;;;;4957653;28;19922;-87
2023/05/16 16:54:04;;;;;;;;;;;;;;;;;;4957362;28;21449;-88
2023/05/16 16:56:30;;;;;;;;;;;;;;;;;;4958250;28;20471;-88
2023/05/16 16:58:56;;;;;;;;;;;;;;;;;;4955238;28;19963;-87